Sandy Valley, Nevada
Current Conditions -  °F | °C
As of 1:56 AM on Friday 24 Oct 2014 (Local Time) from KHND Reporting Station
Clear Clear  
Wind Chill: 62°   Ceiling: Unl
Heat Index: 62°   Visibility: 10mi
Dew Point: 34°   Wind: 5mph
Humidity: 35%   Direction: 170°S
Pressure: 30.07"   Gusts: NA
Location:  35.8439°N, 115.475°W
Report Text: KHND 240856Z AUTO 17004KT 10SM CLR 17/01 A3007 RMK AO2 53003 T01660011 SLP166
Loading
Personal Weather Stations






























Interactive Weather Map
Tropical Storm Tracking
New forecast layout! Learn more

10-Day Weather Forecast

Advertisements
Track Severe Weather on mobile